sensor_id;sensor_type;location;lat;lon;timestamp;P1;durP1;ratioP1;P2;durP2;ratioP2
6344;SDS011;3205;42.666;23.264;2023-02-11T00:02:08;22.20;;;9.37;;
6344;SDS011;3205;42.666;23.264;2023-02-11T00:04:34;22.30;;;10.10;;
6344;SDS011;3205;42.666;23.264;2023-02-11T00:07:01;20.00;;;9.57;;
6344;SDS011;3205;42.666;23.264;2023-02-11T00:09:28;21.80;;;9.33;;
6344;SDS011;3205;42.666;23.264;2023-02-11T00:11:55;26.07;;;10.43;;
6344;SDS011;3205;42.666;23.264;2023-02-11T00:14:21;24.67;;;10.27;;
6344;SDS011;3205;42.666;23.264;2023-02-11T00:16:47;25.33;;;10.80;;
6344;SDS011;3205;42.666;23.264;2023-02-11T00:19:15;24.90;;;11.40;;
6344;SDS011;3205;42.666;23.264;2023-02-11T00:21:41;31.67;;;11.33;;
6344;SDS011;3205;42.666;23.264;2023-02-11T00:24:08;31.30;;;11.00;;
6344;SDS011;3205;42.666;23.264;2023-02-11T00:26:35;30.93;;;10.87;;
6344;SDS011;3205;42.666;23.264;2023-02-11T00:29:01;25.60;;;11.43;;
6344;SDS011;3205;42.666;23.264;2023-02-11T00:31:29;21.97;;;10.70;;
6344;SDS011;3205;42.666;23.264;2023-02-11T00:33:55;27.30;;;11.10;;
6344;SDS011;3205;42.666;23.264;2023-02-11T00:36:22;25.60;;;10.67;;
6344;SDS011;3205;42.666;23.264;2023-02-11T00:38:52;22.10;;;11.03;;
6344;SDS011;3205;42.666;23.264;2023-02-11T00:41:20;27.27;;;11.47;;
6344;SDS011;3205;42.666;23.264;2023-02-11T00:43:47;32.60;;;11.20;;
6344;SDS011;3205;42.666;23.264;2023-02-11T00:46:14;34.53;;;11.30;;
6344;SDS011;3205;42.666;23.264;2023-02-11T00:48:41;35.57;;;11.67;;
6344;SDS011;3205;42.666;23.264;2023-02-11T00:51:08;26.70;;;11.53;;
6344;SDS011;3205;42.666;23.264;2023-02-11T00:53:37;28.93;;;11.57;;
6344;SDS011;3205;42.666;23.264;2023-02-11T00:56:03;25.90;;;11.33;;
6344;SDS011;3205;42.666;23.264;2023-02-11T00:58:31;25.43;;;10.53;;
6344;SDS011;3205;42.666;23.264;2023-02-11T01:00:57;34.57;;;11.97;;
6344;SDS011;3205;42.666;23.264;2023-02-11T01:03:23;29.43;;;12.27;;
6344;SDS011;3205;42.666;23.264;2023-02-11T01:05:49;27.57;;;12.17;;
6344;SDS011;3205;42.666;23.264;2023-02-11T01:08:16;27.20;;;11.60;;
6344;SDS011;3205;42.666;23.264;2023-02-11T01:10:43;27.40;;;11.43;;
6344;SDS011;3205;42.666;23.264;2023-02-11T01:13:09;29.87;;;12.00;;
6344;SDS011;3205;42.666;23.264;2023-02-11T01:15:36;24.50;;;11.30;;
6344;SDS011;3205;42.666;23.264;2023-02-11T01:18:03;30.00;;;12.13;;
6344;SDS011;3205;42.666;23.264;2023-02-11T01:20:30;24.87;;;11.03;;
6344;SDS011;3205;42.666;23.264;2023-02-11T01:22:57;31.03;;;11.90;;
6344;SDS011;3205;42.666;23.264;2023-02-11T01:25:23;31.00;;;12.63;;
6344;SDS011;3205;42.666;23.264;2023-02-11T01:27:49;29.53;;;12.23;;
6344;SDS011;3205;42.666;23.264;2023-02-11T01:30:16;28.00;;;10.40;;
6344;SDS011;3205;42.666;23.264;2023-02-11T01:32:43;24.83;;;11.33;;
6344;SDS011;3205;42.666;23.264;2023-02-11T01:35:09;23.10;;;10.33;;
6344;SDS011;3205;42.666;23.264;2023-02-11T01:37:36;28.00;;;11.17;;
6344;SDS011;3205;42.666;23.264;2023-02-11T01:40:03;27.00;;;11.43;;
6344;SDS011;3205;42.666;23.264;2023-02-11T01:42:31;25.33;;;10.83;;
6344;SDS011;3205;42.666;23.264;2023-02-11T01:44:58;28.23;;;12.47;;
6344;SDS011;3205;42.666;23.264;2023-02-11T01:47:26;25.80;;;10.80;;
6344;SDS011;3205;42.666;23.264;2023-02-11T01:49:54;29.83;;;12.27;;
6344;SDS011;3205;42.666;23.264;2023-02-11T01:52:24;32.03;;;11.57;;
6344;SDS011;3205;42.666;23.264;2023-02-11T01:54:58;25.90;;;11.47;;
6344;SDS011;3205;42.666;23.264;2023-02-11T01:57:46;26.73;;;11.13;;
6344;SDS011;3205;42.666;23.264;2023-02-11T02:00:17;29.63;;;11.77;;
6344;SDS011;3205;42.666;23.264;2023-02-11T02:02:48;26.23;;;10.10;;
6344;SDS011;3205;42.666;23.264;2023-02-11T02:05:20;27.13;;;10.70;;
6344;SDS011;3205;42.666;23.264;2023-02-11T02:07:56;35.40;;;11.13;;
6344;SDS011;3205;42.666;23.264;2023-02-11T02:10:27;28.07;;;11.57;;
6344;SDS011;3205;42.666;23.264;2023-02-11T02:12:55;27.87;;;11.10;;
6344;SDS011;3205;42.666;23.264;2023-02-11T02:15:23;24.43;;;10.70;;
6344;SDS011;3205;42.666;23.264;2023-02-11T02:17:54;27.47;;;10.90;;
6344;SDS011;3205;42.666;23.264;2023-02-11T02:20:40;27.00;;;10.30;;
6344;SDS011;3205;42.666;23.264;2023-02-11T02:23:34;24.70;;;10.87;;
6344;SDS011;3205;42.666;23.264;2023-02-11T02:26:27;26.27;;;10.97;;
6344;SDS011;3205;42.666;23.264;2023-02-11T02:29:29;26.07;;;10.63;;
6344;SDS011;3205;42.666;23.264;2023-02-11T02:32:36;21.67;;;9.40;;
6344;SDS011;3205;42.666;23.264;2023-02-11T02:35:09;25.20;;;9.93;;
6344;SDS011;3205;42.666;23.264;2023-02-11T02:37:41;26.10;;;8.97;;
6344;SDS011;3205;42.666;23.264;2023-02-11T02:40:16;24.37;;;8.73;;
6344;SDS011;3205;42.666;23.264;2023-02-11T02:42:45;21.13;;;8.77;;
6344;SDS011;3205;42.666;23.264;2023-02-11T02:45:13;18.83;;;8.57;;
6344;SDS011;3205;42.666;23.264;2023-02-11T02:47:40;22.47;;;9.17;;
6344;SDS011;3205;42.666;23.264;2023-02-11T02:50:07;18.97;;;8.60;;
6344;SDS011;3205;42.666;23.264;2023-02-11T02:52:35;29.80;;;12.20;;
6344;SDS011;3205;42.666;23.264;2023-02-11T02:55:16;33.60;;;13.30;;
6344;SDS011;3205;42.666;23.264;2023-02-11T02:58:00;43.53;;;14.77;;
6344;SDS011;3205;42.666;23.264;2023-02-11T03:00:47;26.40;;;12.40;;
6344;SDS011;3205;42.666;23.264;2023-02-11T03:03:22;23.83;;;10.57;;
6344;SDS011;3205;42.666;23.264;2023-02-11T03:06:01;23.30;;;9.97;;
6344;SDS011;3205;42.666;23.264;2023-02-11T03:08:31;36.13;;;14.37;;
6344;SDS011;3205;42.666;23.264;2023-02-11T03:11:02;46.50;;;14.97;;
6344;SDS011;3205;42.666;23.264;2023-02-11T03:13:34;27.87;;;12.20;;
6344;SDS011;3205;42.666;23.264;2023-02-11T03:16:03;26.63;;;12.03;;
6344;SDS011;3205;42.666;23.264;2023-02-11T03:18:35;28.23;;;11.70;;
6344;SDS011;3205;42.666;23.264;2023-02-11T03:21:06;28.13;;;11.17;;
6344;SDS011;3205;42.666;23.264;2023-02-11T03:23:35;28.63;;;11.63;;
6344;SDS011;3205;42.666;23.264;2023-02-11T03:26:10;26.63;;;10.60;;
6344;SDS011;3205;42.666;23.264;2023-02-11T03:28:46;23.23;;;10.10;;
6344;SDS011;3205;42.666;23.264;2023-02-11T03:31:21;25.50;;;9.40;;
6344;SDS011;3205;42.666;23.264;2023-02-11T03:33:58;25.33;;;10.47;;
6344;SDS011;3205;42.666;23.264;2023-02-11T03:36:31;21.73;;;10.37;;
6344;SDS011;3205;42.666;23.264;2023-02-11T03:39:03;22.33;;;9.93;;
6344;SDS011;3205;42.666;23.264;2023-02-11T03:41:31;20.77;;;9.93;;
6344;SDS011;3205;42.666;23.264;2023-02-11T03:43:59;25.00;;;10.83;;
6344;SDS011;3205;42.666;23.264;2023-02-11T03:46:29;31.40;;;11.23;;
6344;SDS011;3205;42.666;23.264;2023-02-11T03:49:01;25.80;;;9.90;;
6344;SDS011;3205;42.666;23.264;2023-02-11T03:51:31;28.50;;;9.57;;
6344;SDS011;3205;42.666;23.264;2023-02-11T03:53:59;22.50;;;10.73;;
6344;SDS011;3205;42.666;23.264;2023-02-11T03:56:28;25.77;;;10.00;;
6344;SDS011;3205;42.666;23.264;2023-02-11T03:58:57;29.90;;;9.57;;
6344;SDS011;3205;42.666;23.264;2023-02-11T04:01:24;33.00;;;11.03;;
6344;SDS011;3205;42.666;23.264;2023-02-11T04:03:50;33.37;;;10.50;;
6344;SDS011;3205;42.666;23.264;2023-02-11T04:06:17;30.20;;;10.63;;
6344;SDS011;3205;42.666;23.264;2023-02-11T04:08:43;29.87;;;10.07;;
6344;SDS011;3205;42.666;23.264;2023-02-11T04:11:09;28.50;;;10.03;;
6344;SDS011;3205;42.666;23.264;2023-02-11T04:13:37;21.47;;;9.33;;
6344;SDS011;3205;42.666;23.264;2023-02-11T04:16:03;24.23;;;9.10;;
6344;SDS011;3205;42.666;23.264;2023-02-11T04:18:31;24.53;;;8.90;;
6344;SDS011;3205;42.666;23.264;2023-02-11T04:20:57;22.30;;;9.13;;
6344;SDS011;3205;42.666;23.264;2023-02-11T04:23:24;23.50;;;9.80;;
6344;SDS011;3205;42.666;23.264;2023-02-11T04:25:50;33.73;;;10.27;;
6344;SDS011;3205;42.666;23.264;2023-02-11T04:28:17;24.30;;;8.70;;
6344;SDS011;3205;42.666;23.264;2023-02-11T04:30:45;28.90;;;10.17;;
6344;SDS011;3205;42.666;23.264;2023-02-11T04:33:13;24.53;;;10.43;;
6344;SDS011;3205;42.666;23.264;2023-02-11T04:35:39;34.27;;;12.00;;
6344;SDS011;3205;42.666;23.264;2023-02-11T04:38:06;23.33;;;10.70;;
6344;SDS011;3205;42.666;23.264;2023-02-11T04:40:33;24.93;;;9.60;;
6344;SDS011;3205;42.666;23.264;2023-02-11T04:42:59;26.67;;;10.27;;
6344;SDS011;3205;42.666;23.264;2023-02-11T04:45:25;28.83;;;10.23;;
6344;SDS011;3205;42.666;23.264;2023-02-11T04:47:52;25.03;;;10.00;;
6344;SDS011;3205;42.666;23.264;2023-02-11T04:50:18;23.10;;;9.13;;
6344;SDS011;3205;42.666;23.264;2023-02-11T04:52:44;22.17;;;8.97;;
6344;SDS011;3205;42.666;23.264;2023-02-11T04:55:12;25.03;;;9.87;;
6344;SDS011;3205;42.666;23.264;2023-02-11T04:57:39;22.13;;;10.50;;
6344;SDS011;3205;42.666;23.264;2023-02-11T05:00:08;24.73;;;9.97;;
6344;SDS011;3205;42.666;23.264;2023-02-11T05:02:53;25.57;;;9.57;;
6344;SDS011;3205;42.666;23.264;2023-02-11T05:05:20;22.97;;;9.50;;
6344;SDS011;3205;42.666;23.264;2023-02-11T05:07:47;24.50;;;9.70;;
6344;SDS011;3205;42.666;23.264;2023-02-11T05:10:13;25.63;;;10.40;;
6344;SDS011;3205;42.666;23.264;2023-02-11T05:12:40;26.20;;;9.13;;
6344;SDS011;3205;42.666;23.264;2023-02-11T05:15:07;21.63;;;8.87;;
6344;SDS011;3205;42.666;23.264;2023-02-11T05:17:34;24.90;;;10.10;;
6344;SDS011;3205;42.666;23.264;2023-02-11T05:20:00;22.40;;;8.97;;
6344;SDS011;3205;42.666;23.264;2023-02-11T05:22:27;23.00;;;9.13;;
6344;SDS011;3205;42.666;23.264;2023-02-11T05:24:53;21.87;;;9.03;;
6344;SDS011;3205;42.666;23.264;2023-02-11T05:27:19;22.03;;;8.90;;
6344;SDS011;3205;42.666;23.264;2023-02-11T05:29:46;31.27;;;10.17;;
6344;SDS011;3205;42.666;23.264;2023-02-11T05:32:12;26.30;;;10.10;;
6344;SDS011;3205;42.666;23.264;2023-02-11T05:34:39;26.87;;;11.77;;
6344;SDS011;3205;42.666;23.264;2023-02-11T05:37:05;28.53;;;11.50;;
6344;SDS011;3205;42.666;23.264;2023-02-11T05:39:33;24.67;;;9.63;;
6344;SDS011;3205;42.666;23.264;2023-02-11T05:41:59;35.10;;;11.10;;
6344;SDS011;3205;42.666;23.264;2023-02-11T05:44:25;33.80;;;11.00;;
6344;SDS011;3205;42.666;23.264;2023-02-11T05:46:52;31.93;;;11.10;;
6344;SDS011;3205;42.666;23.264;2023-02-11T05:49:20;44.57;;;14.97;;
6344;SDS011;3205;42.666;23.264;2023-02-11T05:51:46;38.27;;;15.80;;
6344;SDS011;3205;42.666;23.264;2023-02-11T05:54:12;23.37;;;11.30;;
6344;SDS011;3205;42.666;23.264;2023-02-11T05:56:39;29.97;;;11.87;;
6344;SDS011;3205;42.666;23.264;2023-02-11T05:59:05;34.97;;;14.20;;
6344;SDS011;3205;42.666;23.264;2023-02-11T06:01:31;39.63;;;16.77;;
6344;SDS011;3205;42.666;23.264;2023-02-11T06:03:59;43.60;;;15.57;;
6344;SDS011;3205;42.666;23.264;2023-02-11T06:06:25;38.07;;;13.93;;
6344;SDS011;3205;42.666;23.264;2023-02-11T06:08:53;39.93;;;14.73;;
6344;SDS011;3205;42.666;23.264;2023-02-11T06:11:20;31.03;;;13.07;;
6344;SDS011;3205;42.666;23.264;2023-02-11T06:13:47;39.13;;;14.03;;
6344;SDS011;3205;42.666;23.264;2023-02-11T06:16:13;40.27;;;14.67;;
6344;SDS011;3205;42.666;23.264;2023-02-11T06:18:39;48.17;;;16.57;;
6344;SDS011;3205;42.666;23.264;2023-02-11T06:21:07;58.33;;;17.83;;
6344;SDS011;3205;42.666;23.264;2023-02-11T06:23:33;53.37;;;17.60;;
6344;SDS011;3205;42.666;23.264;2023-02-11T06:26:00;67.47;;;20.43;;
6344;SDS011;3205;42.666;23.264;2023-02-11T06:28:28;58.40;;;22.90;;
6344;SDS011;3205;42.666;23.264;2023-02-11T06:30:55;67.73;;;22.23;;
6344;SDS011;3205;42.666;23.264;2023-02-11T06:33:21;66.83;;;21.80;;
6344;SDS011;3205;42.666;23.264;2023-02-11T06:35:47;67.13;;;22.87;;
6344;SDS011;3205;42.666;23.264;2023-02-11T06:38:14;60.37;;;20.43;;
6344;SDS011;3205;42.666;23.264;2023-02-11T06:40:45;67.17;;;24.83;;
6344;SDS011;3205;42.666;23.264;2023-02-11T06:43:13;63.73;;;23.30;;
6344;SDS011;3205;42.666;23.264;2023-02-11T06:45:39;67.03;;;23.63;;
6344;SDS011;3205;42.666;23.264;2023-02-11T06:48:05;42.30;;;18.77;;
6344;SDS011;3205;42.666;23.264;2023-02-11T06:50:31;55.13;;;18.93;;
6344;SDS011;3205;42.666;23.264;2023-02-11T06:52:57;40.47;;;18.50;;
6344;SDS011;3205;42.666;23.264;2023-02-11T06:55:25;36.93;;;17.03;;
6344;SDS011;3205;42.666;23.264;2023-02-11T06:57:52;29.93;;;15.67;;
6344;SDS011;3205;42.666;23.264;2023-02-11T07:00:18;32.90;;;14.57;;
6344;SDS011;3205;42.666;23.264;2023-02-11T07:02:44;29.60;;;14.47;;
6344;SDS011;3205;42.666;23.264;2023-02-11T07:05:10;29.37;;;14.67;;
6344;SDS011;3205;42.666;23.264;2023-02-11T07:07:36;25.83;;;13.83;;
6344;SDS011;3205;42.666;23.264;2023-02-11T07:10:03;28.87;;;15.00;;
6344;SDS011;3205;42.666;23.264;2023-02-11T07:12:31;27.03;;;14.37;;
6344;SDS011;3205;42.666;23.264;2023-02-11T07:14:59;27.17;;;13.87;;
6344;SDS011;3205;42.666;23.264;2023-02-11T07:17:25;25.73;;;13.83;;
6344;SDS011;3205;42.666;23.264;2023-02-11T07:19:51;29.07;;;15.03;;
6344;SDS011;3205;42.666;23.264;2023-02-11T07:22:17;29.13;;;15.63;;
6344;SDS011;3205;42.666;23.264;2023-02-11T07:24:44;28.53;;;15.23;;
6344;SDS011;3205;42.666;23.264;2023-02-11T07:27:10;21.73;;;12.60;;
6344;SDS011;3205;42.666;23.264;2023-02-11T07:29:38;29.63;;;14.80;;
6344;SDS011;3205;42.666;23.264;2023-02-11T07:32:04;27.33;;;13.23;;
6344;SDS011;3205;42.666;23.264;2023-02-11T07:34:31;25.27;;;13.60;;
6344;SDS011;3205;42.666;23.264;2023-02-11T07:36:57;28.50;;;15.00;;
6344;SDS011;3205;42.666;23.264;2023-02-11T07:39:23;27.27;;;14.27;;
6344;SDS011;3205;42.666;23.264;2023-02-11T07:41:52;27.33;;;14.27;;
6344;SDS011;3205;42.666;23.264;2023-02-11T07:44:19;29.07;;;13.73;;
6344;SDS011;3205;42.666;23.264;2023-02-11T07:46:45;27.60;;;14.87;;
6344;SDS011;3205;42.666;23.264;2023-02-11T07:49:13;28.60;;;14.73;;
6344;SDS011;3205;42.666;23.264;2023-02-11T07:51:39;22.90;;;12.80;;
6344;SDS011;3205;42.666;23.264;2023-02-11T07:54:06;28.73;;;14.20;;
6344;SDS011;3205;42.666;23.264;2023-02-11T07:56:32;26.37;;;15.00;;
6344;SDS011;3205;42.666;23.264;2023-02-11T07:58:59;25.77;;;13.00;;
6344;SDS011;3205;42.666;23.264;2023-02-11T08:01:28;24.27;;;12.93;;
6344;SDS011;3205;42.666;23.264;2023-02-11T08:03:55;30.37;;;12.73;;
6344;SDS011;3205;42.666;23.264;2023-02-11T08:06:23;25.10;;;13.10;;
6344;SDS011;3205;42.666;23.264;2023-02-11T08:08:52;30.90;;;13.83;;
6344;SDS011;3205;42.666;23.264;2023-02-11T08:11:18;27.80;;;14.30;;
6344;SDS011;3205;42.666;23.264;2023-02-11T08:13:46;25.90;;;13.90;;
6344;SDS011;3205;42.666;23.264;2023-02-11T08:16:16;28.47;;;13.57;;
6344;SDS011;3205;42.666;23.264;2023-02-11T08:18:44;25.07;;;13.43;;
6344;SDS011;3205;42.666;23.264;2023-02-11T08:21:11;25.33;;;13.17;;
6344;SDS011;3205;42.666;23.264;2023-02-11T08:23:37;25.07;;;13.90;;
6344;SDS011;3205;42.666;23.264;2023-02-11T08:26:05;26.27;;;14.67;;
6344;SDS011;3205;42.666;23.264;2023-02-11T08:28:34;24.07;;;13.87;;
6344;SDS011;3205;42.666;23.264;2023-02-11T08:31:03;28.57;;;15.00;;
6344;SDS011;3205;42.666;23.264;2023-02-11T08:33:31;26.23;;;15.43;;
6344;SDS011;3205;42.666;23.264;2023-02-11T08:35:58;31.77;;;16.17;;
6344;SDS011;3205;42.666;23.264;2023-02-11T08:38:25;28.87;;;16.13;;
6344;SDS011;3205;42.666;23.264;2023-02-11T08:40:51;24.73;;;15.77;;
6344;SDS011;3205;42.666;23.264;2023-02-11T08:43:17;30.07;;;16.10;;
6344;SDS011;3205;42.666;23.264;2023-02-11T08:45:43;24.73;;;14.80;;
6344;SDS011;3205;42.666;23.264;2023-02-11T08:48:10;36.13;;;16.70;;
6344;SDS011;3205;42.666;23.264;2023-02-11T08:50:38;25.13;;;15.13;;
6344;SDS011;3205;42.666;23.264;2023-02-11T08:53:06;26.47;;;15.00;;
6344;SDS011;3205;42.666;23.264;2023-02-11T08:55:33;28.50;;;14.40;;
6344;SDS011;3205;42.666;23.264;2023-02-11T08:57:59;26.47;;;14.33;;
6344;SDS011;3205;42.666;23.264;2023-02-11T09:00:25;25.13;;;14.43;;
6344;SDS011;3205;42.666;23.264;2023-02-11T09:02:51;23.53;;;13.17;;
6344;SDS011;3205;42.666;23.264;2023-02-11T09:05:17;35.33;;;17.07;;
6344;SDS011;3205;42.666;23.264;2023-02-11T09:07:43;26.43;;;14.53;;
6344;SDS011;3205;42.666;23.264;2023-02-11T09:10:09;26.73;;;14.27;;
6344;SDS011;3205;42.666;23.264;2023-02-11T09:12:37;32.27;;;14.80;;
6344;SDS011;3205;42.666;23.264;2023-02-11T09:15:04;26.53;;;13.47;;
6344;SDS011;3205;42.666;23.264;2023-02-11T09:17:32;32.43;;;15.03;;
6344;SDS011;3205;42.666;23.264;2023-02-11T09:19:58;32.10;;;15.17;;
6344;SDS011;3205;42.666;23.264;2023-02-11T09:22:24;25.47;;;13.73;;
6344;SDS011;3205;42.666;23.264;2023-02-11T09:24:51;26.63;;;14.27;;
6344;SDS011;3205;42.666;23.264;2023-02-11T09:27:17;35.53;;;14.17;;
6344;SDS011;3205;42.666;23.264;2023-02-11T09:29:44;24.50;;;13.73;;
6344;SDS011;3205;42.666;23.264;2023-02-11T09:32:10;24.13;;;13.73;;
6344;SDS011;3205;42.666;23.264;2023-02-11T09:34:36;25.70;;;14.57;;
6344;SDS011;3205;42.666;23.264;2023-02-11T09:37:05;23.67;;;13.47;;
6344;SDS011;3205;42.666;23.264;2023-02-11T09:39:31;27.10;;;13.63;;
6344;SDS011;3205;42.666;23.264;2023-02-11T09:42:08;30.10;;;14.87;;
6344;SDS011;3205;42.666;23.264;2023-02-11T09:44:51;25.70;;;12.97;;
6344;SDS011;3205;42.666;23.264;2023-02-11T09:47:23;24.90;;;12.43;;
6344;SDS011;3205;42.666;23.264;2023-02-11T09:49:53;30.40;;;14.07;;
6344;SDS011;3205;42.666;23.264;2023-02-11T09:52:29;22.03;;;12.63;;
6344;SDS011;3205;42.666;23.264;2023-02-11T09:55:05;32.33;;;15.53;;
6344;SDS011;3205;42.666;23.264;2023-02-11T09:57:41;29.93;;;13.73;;
6344;SDS011;3205;42.666;23.264;2023-02-11T10:00:15;20.23;;;11.97;;
6344;SDS011;3205;42.666;23.264;2023-02-11T10:02:50;23.30;;;12.40;;
6344;SDS011;3205;42.666;23.264;2023-02-11T10:05:31;24.27;;;11.40;;
6344;SDS011;3205;42.666;23.264;2023-02-11T10:08:07;25.63;;;12.63;;
6344;SDS011;3205;42.666;23.264;2023-02-11T10:10:43;25.30;;;12.87;;
6344;SDS011;3205;42.666;23.264;2023-02-11T10:13:22;23.03;;;12.20;;
6344;SDS011;3205;42.666;23.264;2023-02-11T10:15:58;24.67;;;11.73;;
6344;SDS011;3205;42.666;23.264;2023-02-11T10:18:42;22.63;;;10.67;;
6344;SDS011;3205;42.666;23.264;2023-02-11T10:21:23;20.83;;;10.47;;
6344;SDS011;3205;42.666;23.264;2023-02-11T10:23:59;22.07;;;11.00;;
6344;SDS011;3205;42.666;23.264;2023-02-11T10:26:28;20.80;;;10.23;;
6344;SDS011;3205;42.666;23.264;2023-02-11T10:28:58;21.27;;;9.80;;
6344;SDS011;3205;42.666;23.264;2023-02-11T10:31:34;17.30;;;10.00;;
6344;SDS011;3205;42.666;23.264;2023-02-11T10:34:04;18.80;;;10.33;;
6344;SDS011;3205;42.666;23.264;2023-02-11T10:36:32;15.80;;;8.70;;
6344;SDS011;3205;42.666;23.264;2023-02-11T10:39:01;19.37;;;8.83;;
6344;SDS011;3205;42.666;23.264;2023-02-11T10:41:36;16.17;;;8.93;;
6344;SDS011;3205;42.666;23.264;2023-02-11T10:44:07;18.03;;;9.33;;
6344;SDS011;3205;42.666;23.264;2023-02-11T10:46:37;15.83;;;8.47;;
6344;SDS011;3205;42.666;23.264;2023-02-11T10:49:04;18.80;;;8.80;;
6344;SDS011;3205;42.666;23.264;2023-02-11T10:51:30;20.93;;;9.90;;
6344;SDS011;3205;42.666;23.264;2023-02-11T10:54:10;20.73;;;10.30;;
6344;SDS011;3205;42.666;23.264;2023-02-11T10:56:43;25.20;;;12.17;;
6344;SDS011;3205;42.666;23.264;2023-02-11T10:59:14;24.07;;;10.23;;
6344;SDS011;3205;42.666;23.264;2023-02-11T11:01:47;27.37;;;10.50;;
6344;SDS011;3205;42.666;23.264;2023-02-11T11:07:18;17.93;;;8.77;;
6344;SDS011;3205;42.666;23.264;2023-02-11T11:09:47;19.93;;;9.20;;
6344;SDS011;3205;42.666;23.264;2023-02-11T11:15:17;18.60;;;9.57;;
6344;SDS011;3205;42.666;23.264;2023-02-11T11:17:47;20.23;;;9.70;;
6344;SDS011;3205;42.666;23.264;2023-02-11T11:20:21;14.77;;;8.43;;
6344;SDS011;3205;42.666;23.264;2023-02-11T11:22:51;13.83;;;8.00;;
6344;SDS011;3205;42.666;23.264;2023-02-11T11:25:41;15.47;;;8.97;;
6344;SDS011;3205;42.666;23.264;2023-02-11T11:28:17;18.27;;;9.03;;
6344;SDS011;3205;42.666;23.264;2023-02-11T11:30:46;19.20;;;8.87;;
6344;SDS011;3205;42.666;23.264;2023-02-11T11:33:18;20.17;;;9.60;;
6344;SDS011;3205;42.666;23.264;2023-02-11T11:35:53;18.20;;;9.07;;
6344;SDS011;3205;42.666;23.264;2023-02-11T11:38:22;22.07;;;9.87;;
6344;SDS011;3205;42.666;23.264;2023-02-11T11:40:50;18.23;;;9.27;;
6344;SDS011;3205;42.666;23.264;2023-02-11T11:43:56;18.10;;;8.57;;
6344;SDS011;3205;42.666;23.264;2023-02-11T11:46:24;17.37;;;8.80;;
6344;SDS011;3205;42.666;23.264;2023-02-11T11:48:57;17.67;;;8.67;;
6344;SDS011;3205;42.666;23.264;2023-02-11T11:51:29;16.33;;;8.70;;
6344;SDS011;3205;42.666;23.264;2023-02-11T11:53:59;17.07;;;8.80;;
6344;SDS011;3205;42.666;23.264;2023-02-11T11:56:27;16.73;;;8.47;;
6344;SDS011;3205;42.666;23.264;2023-02-11T11:58:59;18.57;;;9.00;;
6344;SDS011;3205;42.666;23.264;2023-02-11T12:01:30;21.33;;;8.93;;
6344;SDS011;3205;42.666;23.264;2023-02-11T12:04:15;16.37;;;8.30;;
6344;SDS011;3205;42.666;23.264;2023-02-11T12:06:54;18.77;;;9.00;;
6344;SDS011;3205;42.666;23.264;2023-02-11T12:09:29;23.23;;;9.17;;
6344;SDS011;3205;42.666;23.264;2023-02-11T12:12:05;13.93;;;7.23;;
6344;SDS011;3205;42.666;23.264;2023-02-11T12:14:52;15.97;;;7.90;;
6344;SDS011;3205;42.666;23.264;2023-02-11T12:17:31;14.83;;;7.77;;
6344;SDS011;3205;42.666;23.264;2023-02-11T12:20:16;14.17;;;7.73;;
6344;SDS011;3205;42.666;23.264;2023-02-11T12:22:57;16.00;;;7.57;;
6344;SDS011;3205;42.666;23.264;2023-02-11T12:25:40;12.53;;;7.00;;
6344;SDS011;3205;42.666;23.264;2023-02-11T12:28:17;15.40;;;8.03;;
6344;SDS011;3205;42.666;23.264;2023-02-11T12:31:03;18.03;;;8.90;;
6344;SDS011;3205;42.666;23.264;2023-02-11T12:33:46;17.23;;;8.73;;
6344;SDS011;3205;42.666;23.264;2023-02-11T12:36:33;21.40;;;8.80;;
6344;SDS011;3205;42.666;23.264;2023-02-11T12:39:14;13.93;;;8.13;;
6344;SDS011;3205;42.666;23.264;2023-02-11T12:41:52;19.60;;;8.00;;
6344;SDS011;3205;42.666;23.264;2023-02-11T12:44:55;17.17;;;9.10;;
6344;SDS011;3205;42.666;23.264;2023-02-11T12:47:32;20.97;;;8.67;;
6344;SDS011;3205;42.666;23.264;2023-02-11T12:50:12;19.97;;;8.77;;
6344;SDS011;3205;42.666;23.264;2023-02-11T12:52:59;16.77;;;8.50;;
6344;SDS011;3205;42.666;23.264;2023-02-11T12:55:43;16.97;;;8.33;;
6344;SDS011;3205;42.666;23.264;2023-02-11T12:58:14;15.93;;;7.97;;
6344;SDS011;3205;42.666;23.264;2023-02-11T13:00:45;17.13;;;9.17;;
6344;SDS011;3205;42.666;23.264;2023-02-11T13:03:17;23.20;;;9.00;;
6344;SDS011;3205;42.666;23.264;2023-02-11T13:05:48;18.73;;;9.00;;
6344;SDS011;3205;42.666;23.264;2023-02-11T13:08:21;21.10;;;9.83;;
6344;SDS011;3205;42.666;23.264;2023-02-11T13:10:53;18.00;;;9.30;;
6344;SDS011;3205;42.666;23.264;2023-02-11T13:13:24;22.53;;;9.87;;
6344;SDS011;3205;42.666;23.264;2023-02-11T13:15:55;21.27;;;9.50;;
6344;SDS011;3205;42.666;23.264;2023-02-11T13:18:40;23.00;;;9.73;;
6344;SDS011;3205;42.666;23.264;2023-02-11T13:21:17;20.00;;;9.27;;
6344;SDS011;3205;42.666;23.264;2023-02-11T13:23:54;17.60;;;8.37;;
6344;SDS011;3205;42.666;23.264;2023-02-11T13:26:30;19.00;;;8.97;;
6344;SDS011;3205;42.666;23.264;2023-02-11T13:29:08;16.97;;;8.33;;
6344;SDS011;3205;42.666;23.264;2023-02-11T13:31:51;16.10;;;9.23;;
6344;SDS011;3205;42.666;23.264;2023-02-11T13:34:22;20.27;;;8.90;;
6344;SDS011;3205;42.666;23.264;2023-02-11T13:36:53;21.60;;;8.27;;
6344;SDS011;3205;42.666;23.264;2023-02-11T13:39:22;12.20;;;7.37;;
6344;SDS011;3205;42.666;23.264;2023-02-11T13:41:49;19.30;;;8.87;;
6344;SDS011;3205;42.666;23.264;2023-02-11T13:44:20;14.77;;;8.33;;
6344;SDS011;3205;42.666;23.264;2023-02-11T13:46:53;18.43;;;10.10;;
6344;SDS011;3205;42.666;23.264;2023-02-11T13:49:27;15.77;;;8.27;;
6344;SDS011;3205;42.666;23.264;2023-02-11T13:51:56;21.07;;;8.87;;
6344;SDS011;3205;42.666;23.264;2023-02-11T13:54:30;13.23;;;7.73;;
6344;SDS011;3205;42.666;23.264;2023-02-11T13:57:18;22.73;;;8.50;;
6344;SDS011;3205;42.666;23.264;2023-02-11T13:59:48;16.63;;;8.53;;
6344;SDS011;3205;42.666;23.264;2023-02-11T14:02:26;20.03;;;9.17;;
6344;SDS011;3205;42.666;23.264;2023-02-11T14:05:24;17.47;;;8.23;;
6344;SDS011;3205;42.666;23.264;2023-02-11T14:08:16;21.20;;;9.30;;
6344;SDS011;3205;42.666;23.264;2023-02-11T14:11:03;16.73;;;9.57;;
6344;SDS011;3205;42.666;23.264;2023-02-11T14:16:27;17.37;;;8.73;;
6344;SDS011;3205;42.666;23.264;2023-02-11T14:18:58;21.07;;;9.93;;
6344;SDS011;3205;42.666;23.264;2023-02-11T14:21:29;21.27;;;9.87;;
6344;SDS011;3205;42.666;23.264;2023-02-11T14:27:07;21.87;;;10.07;;
6344;SDS011;3205;42.666;23.264;2023-02-11T14:29:38;21.60;;;10.90;;
6344;SDS011;3205;42.666;23.264;2023-02-11T14:32:12;22.40;;;9.17;;
6344;SDS011;3205;42.666;23.264;2023-02-11T14:34:50;22.80;;;10.77;;
6344;SDS011;3205;42.666;23.264;2023-02-11T14:37:25;21.67;;;10.33;;
6344;SDS011;3205;42.666;23.264;2023-02-11T14:40:04;17.73;;;9.53;;
6344;SDS011;3205;42.666;23.264;2023-02-11T14:42:41;22.60;;;10.47;;
6344;SDS011;3205;42.666;23.264;2023-02-11T14:45:08;20.90;;;10.17;;
6344;SDS011;3205;42.666;23.264;2023-02-11T14:47:41;20.00;;;10.30;;
6344;SDS011;3205;42.666;23.264;2023-02-11T14:50:13;20.40;;;10.23;;
6344;SDS011;3205;42.666;23.264;2023-02-11T14:52:51;22.53;;;10.20;;
6344;SDS011;3205;42.666;23.264;2023-02-11T14:55:25;22.47;;;11.00;;
6344;SDS011;3205;42.666;23.264;2023-02-11T14:58:11;23.97;;;11.20;;
6344;SDS011;3205;42.666;23.264;2023-02-11T15:00:46;26.23;;;11.40;;
6344;SDS011;3205;42.666;23.264;2023-02-11T15:03:23;19.93;;;10.77;;
6344;SDS011;3205;42.666;23.264;2023-02-11T15:06:00;23.50;;;10.90;;
6344;SDS011;3205;42.666;23.264;2023-02-11T15:08:33;26.00;;;11.67;;
6344;SDS011;3205;42.666;23.264;2023-02-11T15:11:02;22.57;;;12.13;;
6344;SDS011;3205;42.666;23.264;2023-02-11T15:13:35;26.37;;;11.90;;